createdAt,value
2023-07-08T00:00:50.099Z,85.23
2023-07-08T00:03:24.525Z,84.79
2023-07-08T00:05:57.092Z,85.35
2023-07-08T00:08:25.223Z,84.87
2023-07-08T00:10:53.274Z,84.83
2023-07-08T00:13:21.321Z,84.44
2023-07-08T00:15:49.922Z,84.65
2023-07-08T00:18:19.092Z,85.04
2023-07-08T00:20:50.037Z,84.86
2023-07-08T00:23:23.289Z,84.70
2023-07-08T00:25:51.685Z,85.33
2023-07-08T00:28:22.559Z,85.47
2023-07-08T00:30:50.584Z,86.29
2023-07-08T00:33:18.568Z,84.85
2023-07-08T00:35:47.327Z,85.01
2023-07-08T00:38:16.342Z,84.56
2023-07-08T00:40:53.495Z,84.19
2023-07-08T00:43:25.719Z,84.49
2023-07-08T00:46:12.472Z,83.86
2023-07-08T00:48:41.219Z,83.03
2023-07-08T00:51:14.169Z,82.48
2023-07-08T00:53:42.471Z,83.01
2023-07-08T00:56:31.508Z,83.41
2023-07-08T00:59:10.066Z,84.24
2023-07-08T01:01:43.770Z,83.48
2023-07-08T01:04:21.373Z,83.21
2023-07-08T01:06:58.895Z,83.88
2023-07-08T01:09:34.284Z,83.40
2023-07-08T01:12:06.248Z,83.84
2023-07-08T01:14:37.318Z,83.87
2023-07-08T01:17:06.220Z,83.97
2023-07-08T01:19:34.477Z,84.58
2023-07-08T01:22:07.429Z,83.83
2023-07-08T01:24:39.744Z,82.95
2023-07-08T01:27:13.011Z,83.17
2023-07-08T01:29:41.077Z,83.19
2023-07-08T01:32:15.353Z,83.61
2023-07-08T01:34:43.488Z,83.83
2023-07-08T01:37:13.601Z,84.51
2023-07-08T01:39:41.596Z,85.22
2023-07-08T01:42:09.626Z,84.27
2023-07-08T01:44:38.208Z,84.31
2023-07-08T01:47:20.512Z,85.37
2023-07-08T01:49:50.062Z,84.15
2023-07-08T01:52:19.417Z,84.16
2023-07-08T01:54:56.542Z,84.50
2023-07-08T01:57:24.738Z,84.44
2023-07-08T01:59:52.653Z,83.98
2023-07-08T02:02:20.719Z,83.41
2023-07-08T02:04:48.766Z,83.95
2023-07-08T02:07:17.155Z,83.52
2023-07-08T02:09:45.191Z,83.48
2023-07-08T02:12:13.623Z,83.75
2023-07-08T02:19:36.776Z,85.17
2023-07-08T02:22:05.870Z,85.37
2023-07-08T02:24:33.944Z,84.60
2023-07-08T02:27:02.160Z,84.22
2023-07-08T02:29:30.564Z,84.76
2023-07-08T02:31:58.684Z,83.99
2023-07-08T02:34:26.724Z,83.92
2023-07-08T02:36:54.732Z,84.36
2023-07-08T02:39:23.331Z,83.37
2023-07-08T02:41:51.482Z,84.21
2023-07-08T02:44:19.502Z,84.49
2023-07-08T02:46:47.510Z,84.29
2023-07-08T02:52:00.040Z,83.99
2023-07-08T02:54:28.239Z,84.59
2023-07-08T02:56:56.281Z,84.42
2023-07-08T02:59:24.397Z,84.29
2023-07-08T03:01:52.485Z,84.84
2023-07-08T03:04:23.338Z,83.98
2023-07-08T03:06:52.784Z,84.45
2023-07-08T03:09:20.896Z,83.93
2023-07-08T03:11:48.920Z,84.46
2023-07-08T03:14:17.088Z,84.26
2023-07-08T03:16:45.322Z,83.60
2023-07-08T03:19:16.557Z,84.06
2023-07-08T03:21:44.753Z,84.49
2023-07-08T03:24:13.436Z,84.27
2023-07-08T03:26:48.352Z,84.06
2023-07-08T03:29:19.984Z,83.95
2023-07-08T03:31:49.178Z,84.06
2023-07-08T03:34:18.805Z,83.55
2023-07-08T03:36:51.733Z,84.03
2023-07-08T03:39:25.727Z,84.22
2023-07-08T03:41:54.617Z,84.08
2023-07-08T03:44:22.534Z,83.99
2023-07-08T03:46:51.345Z,84.09
2023-07-08T03:49:25.013Z,83.87
2023-07-08T03:51:55.207Z,83.73
2023-07-08T03:54:25.317Z,83.42
2023-07-08T03:56:55.961Z,82.78
2023-07-08T03:59:26.389Z,82.24
2023-07-08T04:01:56.821Z,83.15
2023-07-08T04:04:26.623Z,82.56
2023-07-08T04:06:56.189Z,82.89
2023-07-08T04:09:24.447Z,83.14
2023-07-08T04:11:52.409Z,82.78
2023-07-08T04:14:20.547Z,81.69
2023-07-08T04:16:55.633Z,81.50
2023-07-08T04:19:24.481Z,82.49
2023-07-08T04:21:52.439Z,83.05
2023-07-08T04:24:20.696Z,83.38
2023-07-08T04:26:50.351Z,83.64
2023-07-08T04:29:23.328Z,81.94
2023-07-08T04:31:54.367Z,82.13
2023-07-08T04:34:22.812Z,81.21
2023-07-08T04:36:51.041Z,81.52
2023-07-08T04:39:19.560Z,80.90
2023-07-08T04:41:47.621Z,80.63
2023-07-08T04:44:16.092Z,80.98
2023-07-08T04:47:02.342Z,79.76
2023-07-08T04:49:33.078Z,80.43
2023-07-08T04:52:01.164Z,79.80
2023-07-08T04:54:30.374Z,79.43
2023-07-08T04:56:58.396Z,79.45
2023-07-08T04:59:27.138Z,80.15
2023-07-08T05:01:55.314Z,80.11
2023-07-08T05:04:24.018Z,79.30
2023-07-08T05:06:52.177Z,78.26
2023-07-08T05:09:20.164Z,78.08
2023-07-08T05:11:48.212Z,78.08
2023-07-08T05:14:16.241Z,76.85
2023-07-08T05:16:44.379Z,76.31
2023-07-08T05:19:12.512Z,76.66
2023-07-08T05:21:40.965Z,76.55
2023-07-08T05:24:09.616Z,76.42
2023-07-08T05:26:37.680Z,75.85
2023-07-08T05:29:06.690Z,76.25
2023-07-08T05:34:06.289Z,75.04
2023-07-08T05:36:34.322Z,74.72
2023-07-08T05:39:02.441Z,74.84
2023-07-08T05:41:30.607Z,74.08
2023-07-08T05:43:58.592Z,74.14
2023-07-08T05:46:26.680Z,73.51
2023-07-08T05:48:55.398Z,73.62
2023-07-08T05:51:23.543Z,73.35
2023-07-08T05:53:51.624Z,73.60
2023-07-08T05:56:19.966Z,72.19
2023-07-08T05:58:48.305Z,71.99
2023-07-08T06:01:16.578Z,70.53
2023-07-08T06:03:45.093Z,66.03
2023-07-08T06:06:13.330Z,59.22
2023-07-08T06:08:42.680Z,54.57
2023-07-08T06:11:10.733Z,51.12
2023-07-08T06:13:38.795Z,48.98
2023-07-08T06:16:06.917Z,44.23
2023-07-08T06:18:35.459Z,44.77
2023-07-08T06:21:04.548Z,42.05
2023-07-08T06:23:32.675Z,42.36
2023-07-08T06:26:00.784Z,44.39
2023-07-08T06:28:28.884Z,45.08
2023-07-08T06:30:56.966Z,41.33
2023-07-08T06:33:25.043Z,39.76
2023-07-08T06:35:53.046Z,40.15
2023-07-08T06:38:21.164Z,38.01
2023-07-08T06:40:49.308Z,36.90
2023-07-08T06:43:17.238Z,36.63
2023-07-08T06:45:51.057Z,35.64
2023-07-08T06:48:18.948Z,35.51
2023-07-08T06:50:50.129Z,34.26
2023-07-08T06:53:18.541Z,33.35
2023-07-08T06:55:47.275Z,33.12
2023-07-08T06:58:15.698Z,35.30
2023-07-08T07:00:47.434Z,38.86
2023-07-08T07:03:16.073Z,43.39
2023-07-08T07:05:45.638Z,45.83
2023-07-08T07:08:13.899Z,49.90
2023-07-08T07:10:42.094Z,52.92
2023-07-08T07:13:10.407Z,55.87
2023-07-08T07:15:38.971Z,56.71
2023-07-08T07:18:07.713Z,58.24
2023-07-08T07:20:39.524Z,58.73
2023-07-08T07:23:07.868Z,59.56
2023-07-08T07:25:36.681Z,59.75
2023-07-08T07:28:06.470Z,61.08
2023-07-08T07:30:35.462Z,60.67
2023-07-08T07:33:04.424Z,60.91
2023-07-08T07:35:33.096Z,59.58
2023-07-08T07:38:01.321Z,61.94
2023-07-08T07:40:29.352Z,60.57
2023-07-08T07:42:57.419Z,60.98
2023-07-08T07:45:25.391Z,61.00
2023-07-08T07:47:53.424Z,61.10
2023-07-08T07:50:21.542Z,61.89
2023-07-08T07:52:49.638Z,59.92
2023-07-08T07:55:17.726Z,59.69
2023-07-08T07:57:47.173Z,59.85
2023-07-08T08:00:15.857Z,60.26
2023-07-08T08:02:46.413Z,60.39
2023-07-08T08:05:14.581Z,59.42
2023-07-08T08:07:42.631Z,60.26
2023-07-08T08:10:11.014Z,59.76
2023-07-08T08:12:52.249Z,59.53
2023-07-08T08:15:23.907Z,58.79
2023-07-08T08:17:53.813Z,60.39
2023-07-08T08:20:25.266Z,57.21
2023-07-08T08:22:53.953Z,58.17
2023-07-08T08:25:24.724Z,58.96
2023-07-08T08:27:53.822Z,60.26
2023-07-08T08:30:21.892Z,58.92
2023-07-08T08:32:50.136Z,58.10
2023-07-08T08:35:18.303Z,57.50
2023-07-08T08:37:46.386Z,59.47
2023-07-08T08:40:20.627Z,58.06
2023-07-08T08:43:03.713Z,58.48
2023-07-08T08:45:49.005Z,59.71
2023-07-08T08:48:21.251Z,58.41
2023-07-08T08:50:57.839Z,57.76
2023-07-08T08:53:28.386Z,59.03
2023-07-08T08:56:04.940Z,56.71
2023-07-08T08:58:45.505Z,57.79
2023-07-08T09:01:17.831Z,57.58
2023-07-08T09:04:00.863Z,58.38
2023-07-08T09:06:35.609Z,56.97
2023-07-08T09:09:20.160Z,56.37
2023-07-08T09:12:03.018Z,56.45
2023-07-08T09:14:35.054Z,55.95
2023-07-08T09:17:17.432Z,57.47
2023-07-08T09:20:07.266Z,57.57
2023-07-08T09:22:45.581Z,57.30
2023-07-08T09:25:17.290Z,56.54
2023-07-08T09:27:47.914Z,57.86
2023-07-08T09:30:20.178Z,58.61
2023-07-08T09:32:49.868Z,57.20
2023-07-08T09:35:25.487Z,55.64
2023-07-08T09:37:54.471Z,57.85
2023-07-08T09:40:34.343Z,59.48
2023-07-08T09:43:18.706Z,58.15
2023-07-08T09:45:49.074Z,58.80
2023-07-08T09:48:22.192Z,58.14
2023-07-08T09:50:53.845Z,56.13
2023-07-08T09:53:22.196Z,55.31
2023-07-08T09:55:52.345Z,55.14
2023-07-08T09:58:27.308Z,56.19
2023-07-08T10:00:59.834Z,55.86
2023-07-08T10:03:35.400Z,55.08
2023-07-08T10:06:07.447Z,56.60
2023-07-08T10:08:44.433Z,54.66
2023-07-08T10:11:37.422Z,55.91
2023-07-08T10:14:15.456Z,54.71
2023-07-08T10:16:45.219Z,53.47
2023-07-08T10:19:17.691Z,53.64
2023-07-08T10:22:05.639Z,53.92
2023-07-08T10:25:05.492Z,54.51
2023-07-08T10:27:56.235Z,54.17
2023-07-08T10:30:30.082Z,53.74
2023-07-08T10:33:20.289Z,51.04
2023-07-08T10:36:07.533Z,51.92
2023-07-08T10:39:03.658Z,52.41
2023-07-08T10:41:46.774Z,53.02
2023-07-08T10:44:35.166Z,52.96
2023-07-08T10:47:35.144Z,52.56
2023-07-08T10:50:10.226Z,52.00
2023-07-08T10:53:03.209Z,52.97
2023-07-08T10:55:53.157Z,53.88
2023-07-08T10:58:52.055Z,52.04
2023-07-08T11:01:41.293Z,51.30
2023-07-08T11:04:15.732Z,51.50
2023-07-08T11:06:57.015Z,52.16
2023-07-08T11:09:50.544Z,52.19
2023-07-08T11:12:37.892Z,50.21
2023-07-08T11:15:21.506Z,51.56
2023-07-08T11:17:53.271Z,50.58
2023-07-08T11:20:58.848Z,48.89
2023-07-08T11:23:33.906Z,49.44
2023-07-08T11:26:31.922Z,48.82
2023-07-08T11:29:04.427Z,48.24
2023-07-08T11:31:35.415Z,48.20
2023-07-08T11:34:05.001Z,49.31
2023-07-08T11:36:35.671Z,49.28
2023-07-08T11:39:04.337Z,48.38
2023-07-08T11:41:33.867Z,48.83
2023-07-08T11:44:07.490Z,49.27
2023-07-08T11:46:36.264Z,48.30
2023-07-08T11:49:13.394Z,47.40
2023-07-08T11:51:46.193Z,49.18
2023-07-08T11:54:16.483Z,49.28
2023-07-08T11:56:56.672Z,48.80
2023-07-08T11:59:32.097Z,46.98
2023-07-08T12:02:15.615Z,48.75
2023-07-08T12:05:12.833Z,49.06
2023-07-08T12:07:44.793Z,47.15
2023-07-08T12:10:19.234Z,47.77
2023-07-08T12:12:47.770Z,47.54
2023-07-08T12:15:24.368Z,47.92
2023-07-08T12:17:54.943Z,49.86
2023-07-08T12:20:27.411Z,49.69
2023-07-08T12:22:55.697Z,48.79
2023-07-08T12:25:27.247Z,47.39
2023-07-08T12:27:55.277Z,48.51
2023-07-08T12:30:23.289Z,47.94
2023-07-08T12:32:52.590Z,50.26
2023-07-08T12:35:26.953Z,48.36
2023-07-08T12:37:59.558Z,47.32
2023-07-08T12:40:30.774Z,46.25
2023-07-08T12:43:03.050Z,45.68
2023-07-08T12:45:32.512Z,47.32
2023-07-08T12:48:00.503Z,47.74
2023-07-08T12:50:28.504Z,45.26
2023-07-08T12:52:57.834Z,44.67
2023-07-08T12:55:26.776Z,46.04
2023-07-08T12:57:56.376Z,45.30
2023-07-08T13:00:33.326Z,45.25
2023-07-08T13:03:08.695Z,47.80
2023-07-08T13:05:36.941Z,47.85
2023-07-08T13:08:05.972Z,47.70
2023-07-08T13:10:36.271Z,48.04
2023-07-08T13:13:08.351Z,48.05
2023-07-08T13:15:43.765Z,46.82
2023-07-08T13:18:18.826Z,46.92
2023-07-08T13:20:53.589Z,46.73
2023-07-08T13:23:23.468Z,47.07
2023-07-08T13:25:53.423Z,47.92
2023-07-08T13:28:29.654Z,47.74
2023-07-08T13:31:04.018Z,47.27
2023-07-08T13:33:34.611Z,48.10
2023-07-08T13:36:05.318Z,47.21
2023-07-08T13:38:36.471Z,47.72
2023-07-08T13:41:10.170Z,49.26
2023-07-08T13:43:41.178Z,49.05
2023-07-08T13:46:37.565Z,48.58
2023-07-08T13:49:22.642Z,48.29
2023-07-08T13:52:09.588Z,48.21
2023-07-08T13:54:42.686Z,49.67
2023-07-08T13:57:13.683Z,48.76
2023-07-08T13:59:41.705Z,48.35
2023-07-08T14:02:24.939Z,49.33
2023-07-08T14:04:54.858Z,48.33
2023-07-08T14:07:30.116Z,48.77
2023-07-08T14:09:59.139Z,48.92
2023-07-08T14:12:27.810Z,50.14
2023-07-08T14:14:56.263Z,50.00
2023-07-08T14:17:26.161Z,49.91
2023-07-08T14:19:55.156Z,49.85
2023-07-08T14:22:29.778Z,50.77
2023-07-08T14:25:05.999Z,50.22
2023-07-08T14:27:34.754Z,51.49
2023-07-08T14:30:04.105Z,51.01
2023-07-08T14:32:34.452Z,51.31
2023-07-08T14:35:28.149Z,50.51
2023-07-08T14:37:57.427Z,51.00
2023-07-08T14:40:28.589Z,51.37
2023-07-08T14:43:07.502Z,51.94
2023-07-08T14:45:48.810Z,51.21
2023-07-08T14:48:17.972Z,50.51
2023-07-08T14:50:46.946Z,51.66
2023-07-08T14:53:17.108Z,51.61
2023-07-08T14:55:49.506Z,52.51
2023-07-08T14:58:26.230Z,50.83
2023-07-08T15:00:58.092Z,50.76
2023-07-08T15:03:28.462Z,51.85
2023-07-08T15:05:57.243Z,51.16
2023-07-08T15:08:25.872Z,52.14
2023-07-08T15:10:54.876Z,52.43
2023-07-08T15:13:30.471Z,51.89
2023-07-08T15:15:59.175Z,52.55
2023-07-08T15:18:27.824Z,51.67
2023-07-08T15:20:56.796Z,51.32
2023-07-08T15:23:26.318Z,51.74
2023-07-08T15:25:55.828Z,52.11
2023-07-08T15:28:49.230Z,52.21
2023-07-08T15:31:26.284Z,52.59
2023-07-08T15:33:55.091Z,52.18
2023-07-08T15:36:23.833Z,53.76
2023-07-08T15:38:53.515Z,53.31
2023-07-08T15:41:28.312Z,54.01
2023-07-08T15:43:58.269Z,54.17
2023-07-08T15:46:34.473Z,54.99
2023-07-08T15:49:17.568Z,54.05
2023-07-08T15:51:49.355Z,55.61
2023-07-08T15:54:20.806Z,57.35
2023-07-08T15:56:52.993Z,56.98
2023-07-08T15:59:26.790Z,58.39
2023-07-08T16:01:55.845Z,59.34
2023-07-08T16:04:33.398Z,60.33
2023-07-08T16:07:02.507Z,60.04
2023-07-08T16:09:30.740Z,59.36
2023-07-08T16:11:58.802Z,59.93
2023-07-08T16:14:27.558Z,60.23
2023-07-08T16:16:56.574Z,60.48
2023-07-08T16:19:24.909Z,59.57
2023-07-08T16:21:52.944Z,60.20
2023-07-08T16:24:21.858Z,60.34
2023-07-08T16:26:50.154Z,60.68
2023-07-08T16:29:18.539Z,61.09
2023-07-08T16:31:47.563Z,61.16
2023-07-08T16:34:15.966Z,61.29
2023-07-08T16:36:44.168Z,61.94
2023-07-08T16:39:12.947Z,62.20
2023-07-08T16:41:41.102Z,63.22
2023-07-08T16:44:16.234Z,64.02
2023-07-08T16:46:45.230Z,64.51
2023-07-08T16:49:13.765Z,64.08
2023-07-08T16:51:42.785Z,64.52
2023-07-08T16:54:10.833Z,64.73
2023-07-08T16:56:41.041Z,65.56
2023-07-08T16:59:10.550Z,65.87
2023-07-08T17:01:39.410Z,66.04
2023-07-08T17:04:13.138Z,67.06
2023-07-08T17:06:42.667Z,66.83
2023-07-08T17:15:11.568Z,69.62
2023-07-08T17:17:48.286Z,69.63
2023-07-08T17:20:41.514Z,69.04
2023-07-08T17:23:14.666Z,67.42
2023-07-08T17:25:43.648Z,67.52
2023-07-08T17:28:12.704Z,68.36
2023-07-08T17:30:47.136Z,68.22
2023-07-08T17:33:16.779Z,66.24
2023-07-08T17:35:47.557Z,66.01
2023-07-08T17:38:23.755Z,64.59
2023-07-08T17:40:53.545Z,64.73
2023-07-08T17:43:23.833Z,63.31
2023-07-08T17:45:54.159Z,63.71
2023-07-08T17:48:26.915Z,61.76
2023-07-08T17:50:55.747Z,60.97
2023-07-08T17:53:24.665Z,60.12
2023-07-08T17:55:54.164Z,60.04
2023-07-08T17:58:22.954Z,58.93
2023-07-08T18:00:52.122Z,58.86
2023-07-08T18:03:20.757Z,58.46
2023-07-08T18:05:49.525Z,56.57
2023-07-08T18:08:18.176Z,57.81
2023-07-08T18:10:46.655Z,56.65
2023-07-08T18:13:23.981Z,56.64
2023-07-08T18:15:52.671Z,56.62
2023-07-08T18:18:21.629Z,57.08
2023-07-08T18:20:54.600Z,56.74
2023-07-08T18:23:25.776Z,57.04
2023-07-08T18:25:54.446Z,57.34
2023-07-08T18:28:23.059Z,56.99
2023-07-08T18:30:54.434Z,56.75
2023-07-08T18:33:23.339Z,57.55
2023-07-08T18:35:51.847Z,57.78
2023-07-08T18:38:20.491Z,58.04
2023-07-08T18:40:49.254Z,58.71
2023-07-08T18:43:21.839Z,58.45
2023-07-08T18:45:51.730Z,59.47
2023-07-08T18:48:22.643Z,59.05
2023-07-08T18:50:56.560Z,58.43
2023-07-08T18:53:25.977Z,58.08
2023-07-08T18:55:55.084Z,59.88
2023-07-08T18:58:23.777Z,59.56
2023-07-08T19:00:53.968Z,59.71
2023-07-08T19:03:25.838Z,58.56
2023-07-08T19:05:55.305Z,59.40
2023-07-08T19:08:24.533Z,59.64
2023-07-08T19:10:56.369Z,58.76
2023-07-08T19:13:28.413Z,59.18
2023-07-08T19:15:57.043Z,58.97
2023-07-08T19:18:25.556Z,57.37
2023-07-08T19:20:54.270Z,57.90
2023-07-08T19:23:27.857Z,58.62
2023-07-08T19:25:57.357Z,57.05
2023-07-08T19:28:26.004Z,57.17
2023-07-08T19:30:57.801Z,57.46
2023-07-08T19:33:26.584Z,56.88
2023-07-08T19:35:57.386Z,56.70
2023-07-08T19:38:26.138Z,56.53
2023-07-08T19:40:54.929Z,56.10
2023-07-08T19:43:23.994Z,56.63
2023-07-08T19:45:52.932Z,56.30
2023-07-08T19:48:21.640Z,56.52
2023-07-08T19:50:51.256Z,56.78
2023-07-08T19:53:19.752Z,58.10
2023-07-08T19:55:48.210Z,57.80
2023-07-08T19:58:17.272Z,57.66
2023-07-08T20:00:47.796Z,56.38
2023-07-08T20:03:17.569Z,56.58
2023-07-08T20:05:46.892Z,56.45
2023-07-08T20:08:31.700Z,57.24
2023-07-08T20:11:00.433Z,57.60
2023-07-08T20:13:32.126Z,57.50
2023-07-08T20:16:12.986Z,57.00
2023-07-08T20:18:41.243Z,58.21
2023-07-08T20:21:10.876Z,59.18
2023-07-08T20:23:40.455Z,59.13
2023-07-08T20:26:31.099Z,59.67
2023-07-08T20:29:00.591Z,59.45
2023-07-08T20:31:30.017Z,60.24
2023-07-08T20:33:59.168Z,60.61
2023-07-08T20:36:29.348Z,61.26
2023-07-08T20:38:58.098Z,60.85
2023-07-08T20:41:26.958Z,62.33
2023-07-08T20:43:58.115Z,61.18
2023-07-08T20:46:28.863Z,63.52
2023-07-08T20:48:59.754Z,62.64
2023-07-08T20:51:28.660Z,62.27
2023-07-08T20:53:57.140Z,61.99
2023-07-08T20:56:30.962Z,63.00
2023-07-08T20:59:01.656Z,63.39
2023-07-08T21:01:33.400Z,63.84
2023-07-08T21:04:02.477Z,63.96
2023-07-08T21:06:33.575Z,63.79
2023-07-08T21:09:03.608Z,63.13
2023-07-08T21:11:32.207Z,63.73
2023-07-08T21:14:02.321Z,64.06
2023-07-08T21:16:31.332Z,64.62
2023-07-08T21:19:00.303Z,63.84
2023-07-08T21:21:28.740Z,64.93
2023-07-08T21:23:57.064Z,64.21
2023-07-08T21:26:28.981Z,64.65
2023-07-08T21:29:00.175Z,64.88
2023-07-08T21:31:29.995Z,65.20
2023-07-08T21:33:58.314Z,64.94
2023-07-08T21:36:36.176Z,64.52
2023-07-08T21:39:32.941Z,64.68
2023-07-08T21:42:01.196Z,64.84
2023-07-08T21:44:29.510Z,65.05
2023-07-08T21:46:57.943Z,65.27
2023-07-08T21:49:25.843Z,65.02
2023-07-08T21:51:53.940Z,65.49
2023-07-08T21:54:22.116Z,65.58
2023-07-08T21:56:50.113Z,65.88
2023-07-08T21:59:22.503Z,65.58
2023-07-08T22:01:51.811Z,65.76
2023-07-08T22:04:21.811Z,66.02
2023-07-08T22:06:50.190Z,65.94
2023-07-08T22:09:18.387Z,66.91
2023-07-08T22:11:46.602Z,66.26
2023-07-08T22:14:14.722Z,66.90
2023-07-08T22:16:45.586Z,67.19
2023-07-08T22:19:15.433Z,66.88
2023-07-08T22:21:43.576Z,67.42
2023-07-08T22:24:11.621Z,67.64
2023-07-08T22:26:42.023Z,67.84
2023-07-08T22:29:10.509Z,68.34
2023-07-08T22:31:42.731Z,68.58
2023-07-08T22:34:14.271Z,68.99
2023-07-08T22:36:42.866Z,69.23
2023-07-08T22:39:12.148Z,69.38
2023-07-08T22:41:53.004Z,70.00
2023-07-08T22:44:21.816Z,70.11
2023-07-08T22:46:50.550Z,69.98
2023-07-08T22:49:27.742Z,70.20
2023-07-08T22:51:58.941Z,70.42
2023-07-08T22:54:29.898Z,70.87
2023-07-08T22:56:58.306Z,70.97
2023-07-08T22:59:26.346Z,71.11
2023-07-08T23:01:54.448Z,71.38
2023-07-08T23:04:22.488Z,71.28
2023-07-08T23:06:50.594Z,71.05
2023-07-08T23:09:19.017Z,71.37
2023-07-08T23:11:47.347Z,72.20
2023-07-08T23:14:15.395Z,72.07
2023-07-08T23:16:43.422Z,72.32
2023-07-08T23:19:14.462Z,72.71
2023-07-08T23:21:42.598Z,72.84
2023-07-08T23:24:10.952Z,72.61
2023-07-08T23:26:42.356Z,73.44
2023-07-08T23:29:18.591Z,73.79
2023-07-08T23:31:47.950Z,72.85
2023-07-08T23:34:16.137Z,73.79
2023-07-08T23:36:47.738Z,73.45
2023-07-08T23:39:28.227Z,72.93
2023-07-08T23:41:57.842Z,73.07
2023-07-08T23:44:28.330Z,73.53
2023-07-08T23:46:59.606Z,74.18
2023-07-08T23:49:34.753Z,73.54
2023-07-08T23:52:03.937Z,74.38
2023-07-08T23:54:35.949Z,73.68
2023-07-08T23:57:07.145Z,73.96
2023-07-08T23:59:40.729Z,75.16
